Time;durP1;ratioP1;P1;durP2;ratioP2;P2;SDS_P1;SDS_P2;PMS_P1;PMS_P2;Temp;Humidity;BMP_temperature;BMP_pressure;BME280_temperature;BME280_humidity;BME280_pressure;Samples;Min_cycle;Max_cycle;Signal;HPM_P1;HPM_P2
2023/12/09 00:00:28;;;;;;;;;;;5.80;99.90;;;;;;5059409;28;19999;-76
2023/12/09 00:02:55;;;;;;;;;;;5.80;99.90;;;;;;5067803;28;19987;-76
2023/12/09 00:05:23;;;;;;;;;;;5.80;99.90;;;;;;5068617;28;20321;-76
2023/12/09 00:07:49;;;;;;;;;;;5.80;99.90;;;;;;5067683;28;20632;-76
2023/12/09 00:10:16;;;;;;;;;;;5.90;99.90;;;;;;5062494;28;19986;-76
2023/12/09 00:12:42;;;;;;;;;;;5.90;99.90;;;;;;5062659;28;19983;-76
2023/12/09 00:15:09;;;;;;;;;;;5.90;99.90;;;;;;5065286;28;19983;-76
2023/12/09 00:17:36;;;;;;;;;;;5.90;99.90;;;;;;5067395;28;19991;-76
2023/12/09 00:20:04;;;;;;;;;;;5.80;99.90;;;;;;5064759;28;19975;-75
2023/12/09 00:22:33;;;;;;;;;;;5.90;99.90;;;;;;5067270;28;20115;-76
2023/12/09 00:24:59;;;;;;;;;;;5.90;99.90;;;;;;5068761;28;20066;-76
2023/12/09 00:27:26;;;;;;;;;;;5.90;99.90;;;;;;5068302;28;20082;-75
2023/12/09 00:29:53;;;;;;;;;;;5.90;99.90;;;;;;5065439;28;19975;-76
2023/12/09 00:32:19;;;;;;;;;;;5.90;99.90;;;;;;5066774;28;19991;-76
2023/12/09 00:34:46;;;;;;;;;;;5.90;99.90;;;;;;5069353;28;19975;-75
2023/12/09 00:37:12;;;;;;;;;;;5.90;99.90;;;;;;5068215;28;20002;-75
2023/12/09 00:39:40;;;;;;;;;;;5.90;99.90;;;;;;5068334;28;19975;-76
2023/12/09 00:42:07;;;;;;;;;;;5.90;99.90;;;;;;5067451;28;19983;-75
2023/12/09 00:44:33;;;;;;;;;;;5.90;99.90;;;;;;5064899;28;19983;-76
2023/12/09 00:47:00;;;;;;;;;;;5.90;99.90;;;;;;5068082;28;20006;-76
2023/12/09 00:49:26;;;;;;;;;;;5.90;99.90;;;;;;5069612;28;19975;-77
2023/12/09 00:51:53;;;;;;;;;;;5.90;99.90;;;;;;5068691;28;20001;-77
2023/12/09 00:54:19;;;;;;;;;;;5.90;99.90;;;;;;5065501;28;20424;-77
2023/12/09 00:56:47;;;;;;;;;;;6.00;99.90;;;;;;5068477;28;20463;-76
2023/12/09 00:59:13;;;;;;;;;;;6.00;99.90;;;;;;5063720;28;19976;-75
2023/12/09 01:01:40;;;;;;;;;;;6.00;99.90;;;;;;5065210;28;19999;-77
2023/12/09 01:04:07;;;;;;;;;;;6.00;99.90;;;;;;5066990;28;19975;-76
2023/12/09 01:06:33;;;;;;;;;;;6.00;99.90;;;;;;5062899;28;19999;-76
2023/12/09 01:09:00;;;;;;;;;;;5.90;99.90;;;;;;5067273;28;19979;-76
2023/12/09 01:11:27;;;;;;;;;;;6.00;99.90;;;;;;5064632;28;20418;-77
2023/12/09 01:13:55;;;;;;;;;;;6.00;99.90;;;;;;5064279;28;19979;-76
2023/12/09 01:16:22;;;;;;;;;;;6.00;99.90;;;;;;5056119;28;20006;-76
2023/12/09 01:18:48;;;;;;;;;;;6.00;99.90;;;;;;5064733;28;19980;-74
2023/12/09 01:21:15;;;;;;;;;;;6.00;99.90;;;;;;5064545;28;19983;-76
2023/12/09 01:23:41;;;;;;;;;;;6.00;99.90;;;;;;5062280;28;19975;-76
2023/12/09 01:26:08;;;;;;;;;;;6.00;99.90;;;;;;5064024;28;19999;-77
2023/12/09 01:28:35;;;;;;;;;;;6.00;99.90;;;;;;5064717;28;19986;-76
2023/12/09 01:31:03;;;;;;;;;;;6.00;99.90;;;;;;5064932;28;19992;-76
2023/12/09 01:33:29;;;;;;;;;;;6.00;99.90;;;;;;5067350;28;20248;-76
2023/12/09 01:35:56;;;;;;;;;;;6.00;99.90;;;;;;5064408;28;20003;-76
2023/12/09 01:38:22;;;;;;;;;;;6.10;99.90;;;;;;5062769;28;19986;-76
2023/12/09 01:40:52;;;;;;;;;;;6.00;99.90;;;;;;5065362;28;19979;-76
2023/12/09 01:43:19;;;;;;;;;;;6.10;99.90;;;;;;5064706;28;19987;-76
2023/12/09 01:45:45;;;;;;;;;;;6.10;99.90;;;;;;5064280;28;20006;-76
2023/12/09 01:48:13;;;;;;;;;;;6.00;99.90;;;;;;5066732;28;19979;-75
2023/12/09 01:50:40;;;;;;;;;;;6.10;99.90;;;;;;5068014;28;19975;-76
2023/12/09 01:53:06;;;;;;;;;;;6.10;99.90;;;;;;5064880;28;19984;-76
2023/12/09 01:55:33;;;;;;;;;;;6.10;99.90;;;;;;5061435;28;19983;-76
2023/12/09 01:58:00;;;;;;;;;;;6.10;99.90;;;;;;5062252;28;20026;-75
2023/12/09 02:00:26;;;;;;;;;;;6.10;99.90;;;;;;5060524;28;19995;-76
2023/12/09 02:02:53;;;;;;;;;;;6.10;99.90;;;;;;5061785;28;19986;-76
2023/12/09 02:05:21;;;;;;;;;;;6.10;99.90;;;;;;5061953;28;19976;-76
2023/12/09 02:07:48;;;;;;;;;;;6.10;99.90;;;;;;5062189;28;19995;-77
2023/12/09 02:10:16;;;;;;;;;;;6.10;99.90;;;;;;5064569;28;19986;-75
2023/12/09 02:12:44;;;;;;;;;;;6.10;99.90;;;;;;5062620;28;19981;-76
2023/12/09 02:15:13;;;;;;;;;;;6.10;99.90;;;;;;5058668;28;19976;-76
2023/12/09 02:17:41;;;;;;;;;;;6.10;99.90;;;;;;5060062;28;20100;-75
2023/12/09 02:20:11;;;;;;;;;;;6.10;99.90;;;;;;5060856;28;19982;-76
2023/12/09 02:22:38;;;;;;;;;;;6.10;99.90;;;;;;5060087;28;19975;-75
2023/12/09 02:25:07;;;;;;;;;;;6.10;99.90;;;;;;5063844;28;19975;-76
2023/12/09 02:27:37;;;;;;;;;;;6.10;99.90;;;;;;5063395;28;20013;-76
2023/12/09 02:30:06;;;;;;;;;;;6.10;99.90;;;;;;5062818;28;19999;-76
2023/12/09 02:32:35;;;;;;;;;;;6.10;99.90;;;;;;5063375;28;20377;-76
2023/12/09 02:35:02;;;;;;;;;;;6.20;99.90;;;;;;5061636;28;19983;-76
2023/12/09 02:37:30;;;;;;;;;;;6.10;99.90;;;;;;5060069;28;20490;-76
2023/12/09 02:39:57;;;;;;;;;;;6.10;99.90;;;;;;5065295;28;19987;-77
2023/12/09 02:42:26;;;;;;;;;;;6.10;99.90;;;;;;5064286;28;20058;-76
2023/12/09 02:44:52;;;;;;;;;;;6.10;99.90;;;;;;5059170;28;20522;-76
2023/12/09 02:47:19;;;;;;;;;;;6.10;99.90;;;;;;5063423;28;19999;-76
2023/12/09 02:49:45;;;;;;;;;;;6.20;99.90;;;;;;5064662;28;19975;-76
2023/12/09 02:52:12;;;;;;;;;;;6.10;99.90;;;;;;5061255;28;19982;-76
2023/12/09 02:54:38;;;;;;;;;;;6.10;99.90;;;;;;5059062;28;19979;-76
2023/12/09 02:57:05;;;;;;;;;;;6.20;99.90;;;;;;5062589;28;20003;-76
2023/12/09 02:59:33;;;;;;;;;;;6.10;99.90;;;;;;5059066;28;20365;-75
2023/12/09 03:02:00;;;;;;;;;;;6.10;99.90;;;;;;5056832;28;20029;-75
2023/12/09 03:04:28;;;;;;;;;;;6.10;99.90;;;;;;5061207;28;20365;-76
2023/12/09 03:06:54;;;;;;;;;;;6.10;99.90;;;;;;5061577;28;19991;-76
2023/12/09 03:09:21;;;;;;;;;;;6.10;99.90;;;;;;5059374;28;19972;-77
2023/12/09 03:11:47;;;;;;;;;;;6.10;99.90;;;;;;5063774;28;19975;-77
2023/12/09 03:14:14;;;;;;;;;;;6.10;99.90;;;;;;5058992;28;20363;-76
2023/12/09 03:16:42;;;;;;;;;;;6.10;99.90;;;;;;5064321;28;20370;-75
2023/12/09 03:19:08;;;;;;;;;;;6.10;99.90;;;;;;5059163;28;20545;-76
2023/12/09 03:21:35;;;;;;;;;;;6.10;99.90;;;;;;5060557;28;19975;-76
2023/12/09 03:24:01;;;;;;;;;;;6.10;99.90;;;;;;5060237;28;19983;-76
2023/12/09 03:26:28;;;;;;;;;;;6.10;99.90;;;;;;5059661;28;19991;-76
2023/12/09 03:28:54;;;;;;;;;;;6.00;99.90;;;;;;5059093;28;20426;-76
2023/12/09 03:31:21;;;;;;;;;;;6.10;99.90;;;;;;5062820;28;20002;-75
2023/12/09 03:33:49;;;;;;;;;;;6.00;99.90;;;;;;5063065;28;20648;-76
2023/12/09 03:36:15;;;;;;;;;;;6.10;99.90;;;;;;5059099;28;20000;-76
2023/12/09 03:38:42;;;;;;;;;;;6.00;99.90;;;;;;5060478;28;20748;-76
2023/12/09 03:41:09;;;;;;;;;;;6.00;99.90;;;;;;5060118;28;19991;-76
2023/12/09 03:43:36;;;;;;;;;;;6.00;99.90;;;;;;5060837;28;19980;-76
2023/12/09 03:46:02;;;;;;;;;;;6.00;99.90;;;;;;5060294;28;20016;-76
2023/12/09 03:48:30;;;;;;;;;;;6.00;99.90;;;;;;5057055;28;20070;-76
2023/12/09 03:50:57;;;;;;;;;;;6.00;99.90;;;;;;5063892;28;19982;-76
2023/12/09 03:53:24;;;;;;;;;;;6.00;99.90;;;;;;5063510;28;19979;-76
2023/12/09 03:55:50;;;;;;;;;;;6.00;99.90;;;;;;5062018;28;19976;-77
2023/12/09 03:58:17;;;;;;;;;;;6.00;99.90;;;;;;5061523;28;20094;-76
2023/12/09 04:00:44;;;;;;;;;;;6.00;99.90;;;;;;5057941;28;19998;-76
2023/12/09 04:03:11;;;;;;;;;;;6.00;99.90;;;;;;5058601;28;20002;-76
2023/12/09 04:05:38;;;;;;;;;;;6.00;99.90;;;;;;5061819;28;19986;-76
2023/12/09 04:08:06;;;;;;;;;;;6.00;99.90;;;;;;5059697;28;19975;-76
2023/12/09 04:10:32;;;;;;;;;;;6.00;99.90;;;;;;5063006;28;19979;-76
2023/12/09 04:12:59;;;;;;;;;;;6.00;99.90;;;;;;5061421;28;19979;-76
2023/12/09 04:15:27;;;;;;;;;;;6.00;99.90;;;;;;5056368;28;22059;-76
2023/12/09 04:17:53;;;;;;;;;;;6.00;99.90;;;;;;5059073;28;20003;-76
2023/12/09 04:20:20;;;;;;;;;;;6.00;99.90;;;;;;5060263;28;19980;-76
2023/12/09 04:22:47;;;;;;;;;;;6.00;99.90;;;;;;5061054;28;19979;-76
2023/12/09 04:25:14;;;;;;;;;;;5.90;99.90;;;;;;5061526;28;20445;-75
2023/12/09 04:27:41;;;;;;;;;;;6.00;99.90;;;;;;5062071;28;19995;-77
2023/12/09 04:30:09;;;;;;;;;;;6.00;99.90;;;;;;5059090;28;19986;-76
2023/12/09 04:32:35;;;;;;;;;;;6.00;99.90;;;;;;5061608;28;20066;-77
2023/12/09 04:35:02;;;;;;;;;;;6.00;99.90;;;;;;5061837;28;19981;-76
2023/12/09 04:37:29;;;;;;;;;;;6.00;99.90;;;;;;5058796;28;20816;-76
2023/12/09 04:39:56;;;;;;;;;;;6.00;99.90;;;;;;5062019;28;20483;-76
2023/12/09 04:42:23;;;;;;;;;;;5.90;99.90;;;;;;5062760;28;20441;-76
2023/12/09 04:44:50;;;;;;;;;;;6.00;99.90;;;;;;5058846;28;19980;-76
2023/12/09 04:47:17;;;;;;;;;;;6.00;99.90;;;;;;5063220;28;20033;-76
2023/12/09 04:49:43;;;;;;;;;;;6.00;99.90;;;;;;5066800;28;19976;-74
2023/12/09 04:52:10;;;;;;;;;;;6.00;99.90;;;;;;5063427;28;20461;-75
2023/12/09 04:54:36;;;;;;;;;;;6.00;99.90;;;;;;5060037;28;19980;-76
2023/12/09 04:57:03;;;;;;;;;;;6.00;99.90;;;;;;5065387;28;19995;-76
2023/12/09 04:59:31;;;;;;;;;;;6.00;99.90;;;;;;5062360;28;20461;-76
2023/12/09 05:01:57;;;;;;;;;;;6.00;99.90;;;;;;5061630;28;19995;-76
2023/12/09 05:04:24;;;;;;;;;;;6.00;99.90;;;;;;5068339;28;19975;-76
2023/12/09 05:06:50;;;;;;;;;;;6.00;99.90;;;;;;5064559;28;20045;-75
2023/12/09 05:09:17;;;;;;;;;;;6.00;99.90;;;;;;5064966;28;20781;-76
2023/12/09 05:11:43;;;;;;;;;;;6.00;99.90;;;;;;5066096;28;19971;-76
2023/12/09 05:14:10;;;;;;;;;;;6.00;99.90;;;;;;5062559;28;19982;-76
2023/12/09 05:16:38;;;;;;;;;;;6.10;99.90;;;;;;5060805;28;20003;-76
2023/12/09 05:19:06;;;;;;;;;;;6.00;99.90;;;;;;5062674;28;19986;-76
2023/12/09 05:21:32;;;;;;;;;;;6.00;99.90;;;;;;5062330;28;19975;-76
2023/12/09 05:23:59;;;;;;;;;;;6.00;99.90;;;;;;5061535;28;20025;-76
2023/12/09 05:26:27;;;;;;;;;;;6.00;99.90;;;;;;5063703;28;20031;-77
2023/12/09 05:28:54;;;;;;;;;;;6.00;99.90;;;;;;5061197;28;19972;-75
2023/12/09 05:31:21;;;;;;;;;;;6.00;99.90;;;;;;5064054;28;20105;-76
2023/12/09 05:33:49;;;;;;;;;;;6.00;99.90;;;;;;5063389;28;20455;-77
2023/12/09 05:36:16;;;;;;;;;;;6.10;99.90;;;;;;5062688;28;19999;-75
2023/12/09 05:38:42;;;;;;;;;;;6.00;99.90;;;;;;5063693;28;20002;-76
2023/12/09 05:41:09;;;;;;;;;;;6.10;99.90;;;;;;5066405;28;19984;-76
2023/12/09 05:43:36;;;;;;;;;;;6.10;99.90;;;;;;5063115;28;19979;-76
2023/12/09 05:46:03;;;;;;;;;;;6.10;99.90;;;;;;5062271;28;20003;-76
2023/12/09 05:48:29;;;;;;;;;;;6.00;99.90;;;;;;5062091;28;20006;-76
2023/12/09 05:50:57;;;;;;;;;;;6.10;99.90;;;;;;5065674;28;19975;-76
2023/12/09 05:53:23;;;;;;;;;;;6.10;99.90;;;;;;5064224;28;19982;-75
2023/12/09 05:55:50;;;;;;;;;;;6.10;99.90;;;;;;5060045;28;19982;-76
2023/12/09 05:58:17;;;;;;;;;;;6.10;99.90;;;;;;5062627;28;20014;-76
2023/12/09 06:00:43;;;;;;;;;;;6.10;99.90;;;;;;5052474;28;21860;-76
2023/12/09 06:03:10;;;;;;;;;;;6.10;99.90;;;;;;5064192;28;20074;-76
2023/12/09 06:05:37;;;;;;;;;;;6.10;99.90;;;;;;5064765;28;19984;-75
2023/12/09 06:08:05;;;;;;;;;;;6.00;99.90;;;;;;5062258;28;19975;-75
2023/12/09 06:10:31;;;;;;;;;;;6.10;99.90;;;;;;5065773;28;19982;-76
2023/12/09 06:12:58;;;;;;;;;;;6.10;99.90;;;;;;5064701;28;19979;-77
2023/12/09 06:15:24;;;;;;;;;;;6.10;99.90;;;;;;5056648;28;19975;-76
2023/12/09 06:17:51;;;;;;;;;;;6.10;99.90;;;;;;5060418;28;19999;-76
2023/12/09 06:20:17;;;;;;;;;;;6.10;99.90;;;;;;5062098;28;19986;-76
2023/12/09 06:22:44;;;;;;;;;;;6.10;99.90;;;;;;5061464;28;19976;-76
2023/12/09 06:25:12;;;;;;;;;;;6.10;99.90;;;;;;5063524;28;19975;-76
2023/12/09 06:27:38;;;;;;;;;;;6.10;99.90;;;;;;5062040;28;20679;-76
2023/12/09 06:30:05;;;;;;;;;;;6.10;99.90;;;;;;5064367;28;19979;-76
2023/12/09 06:32:32;;;;;;;;;;;6.10;99.90;;;;;;5063906;28;19999;-77
2023/12/09 06:34:58;;;;;;;;;;;6.10;99.90;;;;;;5061492;28;19975;-76
2023/12/09 06:37:24;;;;;;;;;;;6.10;99.90;;;;;;5062829;28;19995;-76
2023/12/09 06:39:50;;;;;;;;;;;6.10;99.90;;;;;;5063914;28;20440;-77
2023/12/09 06:42:19;;;;;;;;;;;6.10;99.90;;;;;;5063345;28;20361;-76
2023/12/09 06:44:45;;;;;;;;;;;6.10;99.90;;;;;;5062436;28;19991;-76
2023/12/09 06:47:12;;;;;;;;;;;6.10;99.90;;;;;;5062879;28;19999;-76
2023/12/09 06:49:39;;;;;;;;;;;6.00;99.90;;;;;;5060774;28;19980;-76
2023/12/09 06:52:05;;;;;;;;;;;6.10;99.90;;;;;;5058509;28;19980;-77
2023/12/09 06:54:32;;;;;;;;;;;6.00;99.90;;;;;;5062846;28;20429;-76
2023/12/09 06:56:58;;;;;;;;;;;6.10;99.90;;;;;;5063767;28;19998;-76
2023/12/09 06:59:26;;;;;;;;;;;6.10;99.90;;;;;;5060076;28;19995;-76
2023/12/09 07:01:56;;;;;;;;;;;6.00;99.90;;;;;;5061908;28;19998;-76
2023/12/09 07:04:23;;;;;;;;;;;6.10;99.90;;;;;;5061348;28;19984;-77
2023/12/09 07:06:49;;;;;;;;;;;6.00;99.90;;;;;;5062816;28;20027;-76
2023/12/09 07:09:16;;;;;;;;;;;6.00;99.90;;;;;;5062049;28;19982;-76
2023/12/09 07:11:42;;;;;;;;;;;6.10;99.90;;;;;;5063566;28;19979;-76
2023/12/09 07:14:09;;;;;;;;;;;6.00;99.90;;;;;;5059888;28;20425;-77
2023/12/09 07:16:37;;;;;;;;;;;6.00;99.90;;;;;;5059749;28;20086;-76
2023/12/09 07:19:06;;;;;;;;;;;6.10;99.90;;;;;;5059452;28;20098;-77
2023/12/09 07:21:32;;;;;;;;;;;6.00;99.90;;;;;;5060520;28;19979;-77
2023/12/09 07:23:59;;;;;;;;;;;6.00;99.90;;;;;;5060586;28;20032;-76
2023/12/09 07:26:25;;;;;;;;;;;6.00;99.90;;;;;;5062934;28;19996;-76
2023/12/09 07:28:52;;;;;;;;;;;6.00;99.90;;;;;;5060991;28;19972;-77
2023/12/09 07:31:19;;;;;;;;;;;6.00;99.90;;;;;;5059298;28;20500;-77
2023/12/09 07:33:46;;;;;;;;;;;6.00;99.90;;;;;;5060801;28;19976;-76
2023/12/09 07:36:13;;;;;;;;;;;6.00;99.90;;;;;;5063918;28;19997;-77
2023/12/09 07:38:40;;;;;;;;;;;6.00;99.90;;;;;;5061914;28;19988;-76
2023/12/09 07:41:06;;;;;;;;;;;6.00;99.90;;;;;;5062682;28;19983;-77
2023/12/09 07:43:33;;;;;;;;;;;6.00;99.90;;;;;;5061345;28;19980;-76
2023/12/09 07:45:59;;;;;;;;;;;6.00;99.90;;;;;;5061330;28;20082;-76
2023/12/09 07:48:26;;;;;;;;;;;6.00;99.90;;;;;;5059291;28;19986;-76
2023/12/09 07:50:54;;;;;;;;;;;6.00;99.90;;;;;;5062847;28;19975;-76
2023/12/09 07:53:21;;;;;;;;;;;6.00;99.90;;;;;;5062583;28;20070;-76
2023/12/09 07:55:47;;;;;;;;;;;6.00;99.90;;;;;;5062730;28;19975;-76
2023/12/09 07:58:14;;;;;;;;;;;6.00;99.90;;;;;;5059695;28;19999;-76
2023/12/09 08:00:40;;;;;;;;;;;6.00;99.90;;;;;;5056486;28;20373;-76
2023/12/09 08:03:07;;;;;;;;;;;6.00;99.90;;;;;;5059616;28;19983;-76
2023/12/09 08:05:34;;;;;;;;;;;6.00;99.90;;;;;;5060052;28;19979;-76
2023/12/09 08:08:02;;;;;;;;;;;6.00;99.90;;;;;;5062923;28;20102;-76
2023/12/09 08:10:29;;;;;;;;;;;6.00;99.90;;;;;;5061893;28;20189;-76
2023/12/09 08:12:56;;;;;;;;;;;6.00;99.90;;;;;;5064606;28;19975;-76
2023/12/09 08:15:22;;;;;;;;;;;6.00;99.90;;;;;;5056603;28;19983;-75
2023/12/09 08:17:49;;;;;;;;;;;6.00;99.90;;;;;;5058143;28;20022;-77
2023/12/09 08:20:16;;;;;;;;;;;6.00;99.90;;;;;;5057747;28;20360;-75
2023/12/09 08:22:42;;;;;;;;;;;6.00;99.90;;;;;;5061964;28;19980;-76
2023/12/09 08:25:10;;;;;;;;;;;6.00;99.90;;;;;;5065808;28;19980;-76
2023/12/09 08:27:38;;;;;;;;;;;6.00;99.90;;;;;;5064796;28;19999;-75
2023/12/09 08:30:05;;;;;;;;;;;6.00;99.90;;;;;;5066747;28;20006;-76
2023/12/09 08:32:32;;;;;;;;;;;6.00;99.90;;;;;;5063278;28;19997;-76
2023/12/09 08:34:59;;;;;;;;;;;6.00;99.90;;;;;;5061647;28;20018;-75
2023/12/09 08:37:25;;;;;;;;;;;6.00;99.90;;;;;;5062816;28;19991;-76
2023/12/09 08:39:53;;;;;;;;;;;6.00;99.90;;;;;;5059087;28;20003;-75
2023/12/09 08:42:21;;;;;;;;;;;6.00;99.90;;;;;;5065505;28;20532;-77
2023/12/09 08:44:48;;;;;;;;;;;6.00;99.90;;;;;;5064520;28;19976;-76
2023/12/09 08:47:14;;;;;;;;;;;6.10;99.90;;;;;;5062557;28;20482;-76
2023/12/09 08:49:41;;;;;;;;;;;6.10;99.90;;;;;;5062557;28;20456;-76
2023/12/09 08:52:07;;;;;;;;;;;6.10;99.90;;;;;;5064223;28;19972;-76
2023/12/09 08:54:34;;;;;;;;;;;6.00;99.90;;;;;;5058186;28;19986;-76
2023/12/09 08:57:00;;;;;;;;;;;6.00;99.90;;;;;;5066780;28;19991;-76
2023/12/09 08:59:28;;;;;;;;;;;6.00;99.90;;;;;;5062368;28;19992;-76
2023/12/09 09:01:55;;;;;;;;;;;6.10;99.90;;;;;;5059541;28;20003;-76
2023/12/09 09:04:22;;;;;;;;;;;6.10;99.90;;;;;;5059120;28;19980;-76
2023/12/09 09:06:49;;;;;;;;;;;6.10;99.90;;;;;;5064045;28;20319;-76
2023/12/09 09:09:15;;;;;;;;;;;6.10;99.90;;;;;;5062674;28;20006;-75
2023/12/09 09:11:42;;;;;;;;;;;6.10;99.90;;;;;;5066332;28;19983;-76
2023/12/09 09:14:08;;;;;;;;;;;6.10;99.90;;;;;;5064717;28;19990;-76
2023/12/09 09:16:36;;;;;;;;;;;6.10;99.90;;;;;;5062894;28;19999;-76
2023/12/09 09:19:03;;;;;;;;;;;6.10;99.90;;;;;;5060407;28;19989;-75
2023/12/09 09:21:30;;;;;;;;;;;6.10;99.90;;;;;;5058235;28;19975;-75
2023/12/09 09:23:56;;;;;;;;;;;6.10;99.90;;;;;;5061639;28;19980;-76
2023/12/09 09:26:24;;;;;;;;;;;6.10;99.90;;;;;;5062425;28;20546;-77
2023/12/09 09:28:50;;;;;;;;;;;6.10;99.90;;;;;;5059329;28;21185;-66
2023/12/09 09:31:17;;;;;;;;;;;6.10;99.90;;;;;;5065542;28;20049;-66
2023/12/09 09:33:45;;;;;;;;;;;6.10;99.90;;;;;;5067373;28;19979;-66
2023/12/09 09:36:11;;;;;;;;;;;6.10;99.90;;;;;;5066524;28;19995;-66
2023/12/09 09:38:39;;;;;;;;;;;6.10;99.90;;;;;;5061286;28;20014;-66
2023/12/09 09:41:08;;;;;;;;;;;6.10;99.90;;;;;;5064861;28;20581;-66
2023/12/09 09:43:38;;;;;;;;;;;6.20;99.90;;;;;;5063307;28;19984;-65
2023/12/09 09:46:07;;;;;;;;;;;6.20;99.90;;;;;;5063686;28;20089;-66
2023/12/09 09:48:36;;;;;;;;;;;6.20;99.90;;;;;;5063311;28;19975;-66
2023/12/09 09:51:06;;;;;;;;;;;6.20;99.90;;;;;;5063926;28;20050;-67
2023/12/09 09:53:35;;;;;;;;;;;6.20;99.90;;;;;;5061420;28;20026;-65
2023/12/09 09:56:02;;;;;;;;;;;6.20;99.90;;;;;;5066998;28;20449;-66
2023/12/09 09:58:29;;;;;;;;;;;6.20;99.90;;;;;;5062401;28;19999;-65
2023/12/09 10:00:57;;;;;;;;;;;6.20;99.90;;;;;;5064641;28;21255;-66
2023/12/09 10:03:24;;;;;;;;;;;6.20;99.90;;;;;;5066635;28;19979;-65
2023/12/09 10:05:53;;;;;;;;;;;6.20;99.90;;;;;;5061841;28;20007;-65
2023/12/09 10:08:20;;;;;;;;;;;6.20;99.90;;;;;;5062645;28;20050;-66
2023/12/09 10:10:47;;;;;;;;;;;6.20;99.90;;;;;;5061584;28;19976;-65
2023/12/09 10:13:13;;;;;;;;;;;6.20;99.90;;;;;;5065382;28;20383;-66
2023/12/09 10:15:40;;;;;;;;;;;6.20;99.90;;;;;;5061592;28;20025;-64
2023/12/09 10:18:12;;;;;;;;;;;6.20;99.90;;;;;;5062720;28;19975;-66
2023/12/09 10:20:39;;;;;;;;;;;6.20;99.90;;;;;;5063307;28;19979;-66
2023/12/09 10:23:05;;;;;;;;;;;6.20;99.90;;;;;;5065942;28;20390;-67
2023/12/09 10:25:33;;;;;;;;;;;6.20;99.90;;;;;;5066675;28;20749;-67
2023/12/09 10:28:00;;;;;;;;;;;6.30;99.90;;;;;;5060435;28;19999;-65
2023/12/09 10:30:27;;;;;;;;;;;6.30;99.90;;;;;;5059564;28;19995;-65
2023/12/09 10:32:54;;;;;;;;;;;6.20;99.90;;;;;;5062448;28;19982;-66
2023/12/09 10:35:21;;;;;;;;;;;6.30;99.90;;;;;;5063202;28;19979;-66
2023/12/09 10:37:49;;;;;;;;;;;6.30;99.90;;;;;;5062857;28;20552;-66
2023/12/09 10:40:15;;;;;;;;;;;6.30;99.90;;;;;;5059663;28;19999;-66
2023/12/09 10:42:43;;;;;;;;;;;6.30;99.90;;;;;;5059767;28;20009;-66
2023/12/09 10:45:11;;;;;;;;;;;6.30;99.90;;;;;;5060831;28;19979;-66
2023/12/09 10:47:37;;;;;;;;;;;6.30;99.90;;;;;;5062540;28;19991;-67
2023/12/09 10:50:04;;;;;;;;;;;6.30;99.90;;;;;;5063036;28;19976;-65
2023/12/09 10:52:31;;;;;;;;;;;6.30;99.90;;;;;;5060820;28;20021;-66
2023/12/09 10:54:58;;;;;;;;;;;6.40;99.90;;;;;;5062995;28;20326;-66
2023/12/09 10:57:25;;;;;;;;;;;6.40;99.90;;;;;;5056708;28;19999;-65
2023/12/09 10:59:54;;;;;;;;;;;6.40;99.90;;;;;;5061794;28;19991;-78
2023/12/09 11:02:21;;;;;;;;;;;6.40;99.90;;;;;;5058840;28;19995;-75
2023/12/09 11:04:49;;;;;;;;;;;6.40;99.90;;;;;;5063531;28;20090;-76
2023/12/09 11:07:16;;;;;;;;;;;6.40;99.90;;;;;;5058210;28;20006;-76
2023/12/09 11:09:43;;;;;;;;;;;6.40;99.90;;;;;;5061509;28;19980;-77
2023/12/09 11:12:09;;;;;;;;;;;6.40;99.90;;;;;;5059054;28;19987;-76
2023/12/09 11:14:37;;;;;;;;;;;6.40;99.90;;;;;;5061037;28;19976;-79
2023/12/09 11:17:25;;;;;;;;;;;6.40;99.90;;;;;;5062026;28;19998;-76
2023/12/09 11:19:52;;;;;;;;;;;6.40;99.90;;;;;;5058405;28;20014;-76
2023/12/09 11:22:19;;;;;;;;;;;6.40;99.90;;;;;;5060036;28;20010;-77
2023/12/09 11:24:46;;;;;;;;;;;6.50;99.90;;;;;;5061532;28;19971;-78
2023/12/09 11:27:18;;;;;;;;;;;6.40;99.90;;;;;;5062162;28;19994;-76
2023/12/09 11:29:44;;;;;;;;;;;6.50;99.90;;;;;;5062379;28;19975;-77
2023/12/09 11:32:13;;;;;;;;;;;6.50;99.90;;;;;;5061656;28;19995;-76
2023/12/09 11:34:41;;;;;;;;;;;6.50;99.90;;;;;;5062902;28;19972;-76
2023/12/09 11:37:10;;;;;;;;;;;6.50;99.90;;;;;;5062921;28;20003;-77
2023/12/09 11:39:38;;;;;;;;;;;6.50;99.90;;;;;;5055489;28;20093;-76
2023/12/09 11:42:04;;;;;;;;;;;6.50;99.90;;;;;;5062195;28;20006;-77
2023/12/09 11:44:31;;;;;;;;;;;6.50;99.90;;;;;;5061920;28;19975;-75
2023/12/09 11:46:58;;;;;;;;;;;6.50;99.90;;;;;;5059721;28;20006;-76
2023/12/09 11:49:27;;;;;;;;;;;6.50;99.90;;;;;;5062139;28;19979;-77
2023/12/09 11:51:53;;;;;;;;;;;6.60;99.90;;;;;;5062709;28;20033;-79
2023/12/09 11:54:20;;;;;;;;;;;6.50;99.90;;;;;;5062614;28;19979;-77
2023/12/09 11:56:46;;;;;;;;;;;6.60;99.90;;;;;;5059666;28;20489;-76
2023/12/09 11:59:13;;;;;;;;;;;6.60;99.90;;;;;;5066204;28;20006;-78
2023/12/09 12:01:41;;;;;;;;;;;6.60;99.90;;;;;;5065541;28;20038;-77
2023/12/09 12:04:07;;;;;;;;;;;6.60;99.90;;;;;;5066103;28;19975;-77
2023/12/09 12:06:36;;;;;;;;;;;6.60;99.90;;;;;;5067737;28;21137;-77
2023/12/09 12:09:03;;;;;;;;;;;6.60;99.90;;;;;;5060505;28;20468;-77
2023/12/09 12:11:30;;;;;;;;;;;6.60;99.90;;;;;;5067969;28;20143;-77
2023/12/09 12:13:56;;;;;;;;;;;6.70;99.90;;;;;;5065056;28;19979;-77
2023/12/09 12:16:23;;;;;;;;;;;6.70;99.90;;;;;;5066089;28;20022;-77
2023/12/09 12:18:49;;;;;;;;;;;6.70;99.90;;;;;;5065883;28;19976;-78
2023/12/09 12:21:16;;;;;;;;;;;6.70;99.90;;;;;;5066849;28;19995;-77
2023/12/09 12:23:44;;;;;;;;;;;6.70;99.90;;;;;;5067007;28;19983;-77
2023/12/09 12:26:12;;;;;;;;;;;6.70;99.90;;;;;;5062310;28;20511;-77
2023/12/09 12:28:39;;;;;;;;;;;6.70;99.90;;;;;;5063408;28;20090;-79
2023/12/09 12:31:06;;;;;;;;;;;6.70;99.90;;;;;;5062772;28;19991;-77
2023/12/09 12:33:32;;;;;;;;;;;6.80;99.90;;;;;;5066165;28;20516;-77
2023/12/09 12:36:00;;;;;;;;;;;6.80;99.90;;;;;;5062000;28;19984;-77
2023/12/09 12:38:27;;;;;;;;;;;6.80;99.90;;;;;;5063154;28;19980;-76
2023/12/09 12:40:56;;;;;;;;;;;6.80;99.90;;;;;;5063084;28;20006;-77
2023/12/09 12:43:22;;;;;;;;;;;6.80;99.90;;;;;;5066396;28;19997;-76
2023/12/09 12:45:49;;;;;;;;;;;6.80;99.90;;;;;;5062732;28;20094;-76
2023/12/09 12:48:17;;;;;;;;;;;6.90;99.90;;;;;;5062759;28;20668;-77
2023/12/09 12:50:44;;;;;;;;;;;6.90;99.90;;;;;;5064418;28;19979;-77
2023/12/09 12:53:10;;;;;;;;;;;6.90;99.90;;;;;;5060895;28;19983;-77
2023/12/09 12:55:38;;;;;;;;;;;6.90;99.90;;;;;;5063577;28;19975;-75
2023/12/09 12:58:05;;;;;;;;;;;6.90;99.90;;;;;;5062594;28;19995;-78
2023/12/09 13:00:32;;;;;;;;;;;6.90;99.90;;;;;;5064721;28;19991;-76
2023/12/09 13:02:59;;;;;;;;;;;6.90;99.90;;;;;;5064612;28;19990;-76
2023/12/09 13:05:25;;;;;;;;;;;6.90;99.90;;;;;;5066572;28;19983;-75
2023/12/09 13:07:52;;;;;;;;;;;6.90;99.90;;;;;;5064783;28;19991;-76
2023/12/09 13:10:19;;;;;;;;;;;7.00;99.90;;;;;;5063276;28;20011;-76
2023/12/09 13:12:45;;;;;;;;;;;7.00;99.90;;;;;;5067172;28;19982;-76
2023/12/09 13:15:13;;;;;;;;;;;6.90;99.90;;;;;;5066146;28;19982;-75
2023/12/09 13:17:40;;;;;;;;;;;7.00;99.90;;;;;;5063762;28;19996;-76
2023/12/09 13:20:09;;;;;;;;;;;6.90;99.90;;;;;;5065186;28;20384;-76
2023/12/09 13:22:36;;;;;;;;;;;6.90;99.90;;;;;;5063510;28;19986;-77
2023/12/09 13:25:03;;;;;;;;;;;7.00;99.90;;;;;;5062425;28;19979;-78
2023/12/09 13:27:30;;;;;;;;;;;7.00;99.90;;;;;;5065076;28;20014;-75
2023/12/09 13:29:59;;;;;;;;;;;6.90;99.90;;;;;;5065441;28;20015;-76
2023/12/09 13:32:27;;;;;;;;;;;7.00;99.90;;;;;;5063984;28;19991;-78
2023/12/09 13:34:54;;;;;;;;;;;7.00;99.90;;;;;;5066509;28;19979;-79
2023/12/09 13:37:20;;;;;;;;;;;7.00;99.90;;;;;;5062642;28;20476;-76
2023/12/09 13:39:47;;;;;;;;;;;7.00;99.90;;;;;;5065104;28;20530;-77
2023/12/09 13:42:14;;;;;;;;;;;7.00;99.90;;;;;;5065386;28;20653;-74
2023/12/09 13:44:40;;;;;;;;;;;7.00;99.90;;;;;;5062762;28;19980;-75
2023/12/09 13:47:07;;;;;;;;;;;7.00;99.90;;;;;;5061727;28;20057;-76
2023/12/09 13:49:35;;;;;;;;;;;7.00;99.90;;;;;;5062613;28;19980;-76
2023/12/09 13:52:02;;;;;;;;;;;7.00;99.90;;;;;;5065330;28;19975;-77
2023/12/09 13:54:29;;;;;;;;;;;7.00;99.90;;;;;;5062687;28;20670;-75
2023/12/09 13:56:56;;;;;;;;;;;7.00;99.90;;;;;;5062533;28;20647;-77
2023/12/09 13:59:23;;;;;;;;;;;7.00;99.90;;;;;;5065820;28;20484;-77
2023/12/09 14:01:50;;;;;;;;;;;7.00;99.90;;;;;;5064690;28;20420;-75
2023/12/09 14:04:17;;;;;;;;;;;7.00;99.90;;;;;;5064021;28;20085;-75
2023/12/09 14:06:45;;;;;;;;;;;7.10;99.90;;;;;;5065168;28;19995;-79
2023/12/09 14:09:14;;;;;;;;;;;7.00;99.90;;;;;;5058954;28;19983;-77
2023/12/09 14:11:42;;;;;;;;;;;7.10;99.90;;;;;;5061493;28;20036;-78
2023/12/09 14:14:09;;;;;;;;;;;7.00;99.90;;;;;;5064623;28;19976;-76
2023/12/09 14:16:36;;;;;;;;;;;7.00;99.90;;;;;;5061046;28;19999;-76
2023/12/09 14:19:02;;;;;;;;;;;7.10;99.90;;;;;;5061785;28;20494;-78
2023/12/09 14:21:33;;;;;;;;;;;7.00;99.90;;;;;;5061828;28;20534;-75
2023/12/09 14:24:00;;;;;;;;;;;7.00;99.90;;;;;;5061670;28;20441;-75
2023/12/09 14:26:28;;;;;;;;;;;7.00;99.90;;;;;;5058647;28;20476;-78
2023/12/09 14:28:55;;;;;;;;;;;7.10;99.90;;;;;;5058889;28;19980;-77